sensor_id;sensor_type;location;lat;lon;timestamp;temperature;humidity
3312;DHT22;1668;49.648;8.570;2024-02-23T00:01:18;8.70;1.00
3312;DHT22;1668;49.648;8.570;2024-02-23T00:03:45;8.60;1.00
3312;DHT22;1668;49.648;8.570;2024-02-23T00:06:12;8.60;1.00
3312;DHT22;1668;49.648;8.570;2024-02-23T00:08:40;8.60;1.00
3312;DHT22;1668;49.648;8.570;2024-02-23T00:11:07;8.60;47.50
3312;DHT22;1668;49.648;8.570;2024-02-23T00:13:35;8.60;99.90
3312;DHT22;1668;49.648;8.570;2024-02-23T00:16:03;8.50;99.90
3312;DHT22;1668;49.648;8.570;2024-02-23T00:18:30;8.50;99.90
3312;DHT22;1668;49.648;8.570;2024-02-23T00:20:56;8.50;1.00
3312;DHT22;1668;49.648;8.570;2024-02-23T00:23:23;8.50;1.00
3312;DHT22;1668;49.648;8.570;2024-02-23T00:25:50;8.40;1.00
3312;DHT22;1668;49.648;8.570;2024-02-23T00:28:17;8.30;1.00
3312;DHT22;1668;49.648;8.570;2024-02-23T00:30:45;8.20;99.90
3312;DHT22;1668;49.648;8.570;2024-02-23T00:33:12;8.20;99.90
3312;DHT22;1668;49.648;8.570;2024-02-23T00:35:39;8.10;1.00
3312;DHT22;1668;49.648;8.570;2024-02-23T00:38:06;8.10;99.90
3312;DHT22;1668;49.648;8.570;2024-02-23T00:40:33;8.00;99.90
3312;DHT22;1668;49.648;8.570;2024-02-23T00:43:00;7.90;1.00
3312;DHT22;1668;49.648;8.570;2024-02-23T00:45:28;7.90;1.00
3312;DHT22;1668;49.648;8.570;2024-02-23T00:47:56;7.90;99.90
3312;DHT22;1668;49.648;8.570;2024-02-23T00:50:23;7.80;1.00
3312;DHT22;1668;49.648;8.570;2024-02-23T00:52:51;7.80;10.40
3312;DHT22;1668;49.648;8.570;2024-02-23T00:55:18;7.80;99.90
3312;DHT22;1668;49.648;8.570;2024-02-23T00:57:45;7.80;99.90
3312;DHT22;1668;49.648;8.570;2024-02-23T01:00:12;7.80;1.00
3312;DHT22;1668;49.648;8.570;2024-02-23T01:02:40;7.80;1.00
3312;DHT22;1668;49.648;8.570;2024-02-23T01:05:08;7.70;1.00
3312;DHT22;1668;49.648;8.570;2024-02-23T01:07:36;7.70;1.00
3312;DHT22;1668;49.648;8.570;2024-02-23T01:10:03;7.70;1.00
3312;DHT22;1668;49.648;8.570;2024-02-23T01:12:31;7.70;1.00
3312;DHT22;1668;49.648;8.570;2024-02-23T01:14:57;7.70;99.90
3312;DHT22;1668;49.648;8.570;2024-02-23T01:17:24;7.70;99.90
3312;DHT22;1668;49.648;8.570;2024-02-23T01:19:51;7.70;99.90
3312;DHT22;1668;49.648;8.570;2024-02-23T01:22:19;7.70;99.90
3312;DHT22;1668;49.648;8.570;2024-02-23T01:24:46;7.70;1.00
3312;DHT22;1668;49.648;8.570;2024-02-23T01:27:13;7.70;1.00
3312;DHT22;1668;49.648;8.570;2024-02-23T01:29:40;7.70;1.00
3312;DHT22;1668;49.648;8.570;2024-02-23T01:32:06;7.70;99.90
3312;DHT22;1668;49.648;8.570;2024-02-23T01:34:33;7.70;1.00
3312;DHT22;1668;49.648;8.570;2024-02-23T01:37:00;7.70;1.00
3312;DHT22;1668;49.648;8.570;2024-02-23T01:39:28;7.70;99.90
3312;DHT22;1668;49.648;8.570;2024-02-23T01:41:55;7.60;99.90
3312;DHT22;1668;49.648;8.570;2024-02-23T01:44:22;7.60;1.00
3312;DHT22;1668;49.648;8.570;2024-02-23T01:46:49;7.40;99.90
3312;DHT22;1668;49.648;8.570;2024-02-23T01:49:17;7.30;99.90
3312;DHT22;1668;49.648;8.570;2024-02-23T01:51:44;7.20;1.00
3312;DHT22;1668;49.648;8.570;2024-02-23T01:54:11;7.10;1.00
3312;DHT22;1668;49.648;8.570;2024-02-23T01:56:39;7.00;1.00
3312;DHT22;1668;49.648;8.570;2024-02-23T01:59:06;7.00;99.90
3312;DHT22;1668;49.648;8.570;2024-02-23T02:01:34;7.00;99.90
3312;DHT22;1668;49.648;8.570;2024-02-23T02:04:01;6.90;14.00
3312;DHT22;1668;49.648;8.570;2024-02-23T02:06:28;6.90;99.90
3312;DHT22;1668;49.648;8.570;2024-02-23T02:08:54;6.80;1.00
3312;DHT22;1668;49.648;8.570;2024-02-23T02:11:21;6.80;99.90
3312;DHT22;1668;49.648;8.570;2024-02-23T02:13:50;6.80;99.90
3312;DHT22;1668;49.648;8.570;2024-02-23T02:16:16;6.60;1.00
3312;DHT22;1668;49.648;8.570;2024-02-23T02:18:43;6.60;1.00
3312;DHT22;1668;49.648;8.570;2024-02-23T02:21:11;6.50;1.00
3312;DHT22;1668;49.648;8.570;2024-02-23T02:23:38;6.50;1.00
3312;DHT22;1668;49.648;8.570;2024-02-23T02:26:05;6.50;1.00
3312;DHT22;1668;49.648;8.570;2024-02-23T02:28:32;6.40;99.90
3312;DHT22;1668;49.648;8.570;2024-02-23T02:31:01;6.40;75.10
3312;DHT22;1668;49.648;8.570;2024-02-23T02:33:28;6.40;99.90
3312;DHT22;1668;49.648;8.570;2024-02-23T02:35:55;6.30;99.90
3312;DHT22;1668;49.648;8.570;2024-02-23T02:38:22;6.30;99.90
3312;DHT22;1668;49.648;8.570;2024-02-23T02:40:49;6.30;1.00
3312;DHT22;1668;49.648;8.570;2024-02-23T02:43:16;6.20;99.90
3312;DHT22;1668;49.648;8.570;2024-02-23T02:45:43;6.20;99.90
3312;DHT22;1668;49.648;8.570;2024-02-23T02:48:11;6.20;1.00
3312;DHT22;1668;49.648;8.570;2024-02-23T02:50:38;6.10;1.00
3312;DHT22;1668;49.648;8.570;2024-02-23T02:53:05;6.10;99.90
3312;DHT22;1668;49.648;8.570;2024-02-23T02:55:32;6.10;99.90
3312;DHT22;1668;49.648;8.570;2024-02-23T02:57:59;6.10;1.00
3312;DHT22;1668;49.648;8.570;2024-02-23T03:00:25;6.20;1.00
3312;DHT22;1668;49.648;8.570;2024-02-23T03:02:53;6.10;1.00
3312;DHT22;1668;49.648;8.570;2024-02-23T03:05:21;6.10;99.90
3312;DHT22;1668;49.648;8.570;2024-02-23T03:07:48;6.10;99.90
3312;DHT22;1668;49.648;8.570;2024-02-23T03:10:15;6.00;99.90
3312;DHT22;1668;49.648;8.570;2024-02-23T03:12:42;6.00;99.90
3312;DHT22;1668;49.648;8.570;2024-02-23T03:15:09;6.00;82.10
3312;DHT22;1668;49.648;8.570;2024-02-23T03:17:36;6.00;99.90
3312;DHT22;1668;49.648;8.570;2024-02-23T03:20:04;6.10;99.90
3312;DHT22;1668;49.648;8.570;2024-02-23T03:22:35;6.00;9.80
3312;DHT22;1668;49.648;8.570;2024-02-23T03:25:02;6.10;99.90
3312;DHT22;1668;49.648;8.570;2024-02-23T03:27:34;6.10;1.00
3312;DHT22;1668;49.648;8.570;2024-02-23T03:30:01;6.10;1.00
3312;DHT22;1668;49.648;8.570;2024-02-23T03:32:28;6.10;36.60
3312;DHT22;1668;49.648;8.570;2024-02-23T03:34:56;6.10;1.00
3312;DHT22;1668;49.648;8.570;2024-02-23T03:37:24;6.10;1.00
3312;DHT22;1668;49.648;8.570;2024-02-23T03:39:52;6.10;1.00
3312;DHT22;1668;49.648;8.570;2024-02-23T03:42:19;6.10;2.70
3312;DHT22;1668;49.648;8.570;2024-02-23T03:44:45;6.10;1.00
3312;DHT22;1668;49.648;8.570;2024-02-23T03:47:12;6.10;1.00
3312;DHT22;1668;49.648;8.570;2024-02-23T03:49:39;6.20;99.90
3312;DHT22;1668;49.648;8.570;2024-02-23T03:52:06;6.10;99.90
3312;DHT22;1668;49.648;8.570;2024-02-23T03:54:33;6.20;99.90
3312;DHT22;1668;49.648;8.570;2024-02-23T03:57:01;6.10;78.20
3312;DHT22;1668;49.648;8.570;2024-02-23T03:59:28;6.20;1.00
3312;DHT22;1668;49.648;8.570;2024-02-23T04:01:55;6.10;94.80
3312;DHT22;1668;49.648;8.570;2024-02-23T04:04:22;6.10;99.90
3312;DHT22;1668;49.648;8.570;2024-02-23T04:06:49;6.10;99.90
3312;DHT22;1668;49.648;8.570;2024-02-23T04:09:15;6.10;99.90
3312;DHT22;1668;49.648;8.570;2024-02-23T04:11:42;6.10;99.90
3312;DHT22;1668;49.648;8.570;2024-02-23T04:14:11;6.10;99.90
3312;DHT22;1668;49.648;8.570;2024-02-23T04:16:37;6.00;1.00
3312;DHT22;1668;49.648;8.570;2024-02-23T04:19:04;6.00;1.00
3312;DHT22;1668;49.648;8.570;2024-02-23T04:21:31;6.00;1.00
3312;DHT22;1668;49.648;8.570;2024-02-23T04:23:58;5.90;1.00
3312;DHT22;1668;49.648;8.570;2024-02-23T04:26:25;5.90;1.00
3312;DHT22;1668;49.648;8.570;2024-02-23T04:28:51;5.90;1.00
3312;DHT22;1668;49.648;8.570;2024-02-23T04:31:20;5.90;99.90
3312;DHT22;1668;49.648;8.570;2024-02-23T04:33:46;5.90;99.90
3312;DHT22;1668;49.648;8.570;2024-02-23T04:36:13;5.80;99.90
3312;DHT22;1668;49.648;8.570;2024-02-23T04:38:41;5.80;99.90
3312;DHT22;1668;49.648;8.570;2024-02-23T04:41:08;5.80;99.90
3312;DHT22;1668;49.648;8.570;2024-02-23T04:43:35;5.80;99.90
3312;DHT22;1668;49.648;8.570;2024-02-23T04:46:02;5.80;99.90
3312;DHT22;1668;49.648;8.570;2024-02-23T04:48:30;5.70;1.00
3312;DHT22;1668;49.648;8.570;2024-02-23T04:50:57;5.70;99.90
3312;DHT22;1668;49.648;8.570;2024-02-23T04:53:24;5.70;99.90
3312;DHT22;1668;49.648;8.570;2024-02-23T04:55:51;5.70;68.90
3312;DHT22;1668;49.648;8.570;2024-02-23T04:58:17;5.70;99.90
3312;DHT22;1668;49.648;8.570;2024-02-23T05:00:46;5.70;1.00
3312;DHT22;1668;49.648;8.570;2024-02-23T05:03:13;5.70;99.90
3312;DHT22;1668;49.648;8.570;2024-02-23T05:05:42;5.70;99.90
3312;DHT22;1668;49.648;8.570;2024-02-23T05:08:09;5.60;24.70
3312;DHT22;1668;49.648;8.570;2024-02-23T05:10:36;5.60;1.00
3312;DHT22;1668;49.648;8.570;2024-02-23T05:13:03;5.70;1.00
3312;DHT22;1668;49.648;8.570;2024-02-23T05:15:30;5.60;99.90
3312;DHT22;1668;49.648;8.570;2024-02-23T05:17:57;5.60;99.90
3312;DHT22;1668;49.648;8.570;2024-02-23T05:20:24;5.60;1.00
3312;DHT22;1668;49.648;8.570;2024-02-23T05:22:52;5.60;99.90
3312;DHT22;1668;49.648;8.570;2024-02-23T05:25:19;5.60;1.00
3312;DHT22;1668;49.648;8.570;2024-02-23T05:27:45;5.60;99.90
3312;DHT22;1668;49.648;8.570;2024-02-23T05:30:13;5.60;99.90
3312;DHT22;1668;49.648;8.570;2024-02-23T05:32:40;5.60;1.00
3312;DHT22;1668;49.648;8.570;2024-02-23T05:35:06;5.70;1.00
3312;DHT22;1668;49.648;8.570;2024-02-23T05:37:34;5.70;1.00
3312;DHT22;1668;49.648;8.570;2024-02-23T05:40:04;5.70;1.00
3312;DHT22;1668;49.648;8.570;2024-02-23T05:42:33;5.70;1.00
3312;DHT22;1668;49.648;8.570;2024-02-23T05:44:59;5.70;99.90
3312;DHT22;1668;49.648;8.570;2024-02-23T05:47:26;5.70;99.90
3312;DHT22;1668;49.648;8.570;2024-02-23T05:49:53;5.70;99.90
3312;DHT22;1668;49.648;8.570;2024-02-23T05:52:20;5.70;99.90
3312;DHT22;1668;49.648;8.570;2024-02-23T05:54:47;5.80;99.90
3312;DHT22;1668;49.648;8.570;2024-02-23T05:57:15;5.80;1.00
3312;DHT22;1668;49.648;8.570;2024-02-23T05:59:42;5.80;1.00
3312;DHT22;1668;49.648;8.570;2024-02-23T06:02:09;5.80;1.00
3312;DHT22;1668;49.648;8.570;2024-02-23T06:04:35;5.80;1.00
3312;DHT22;1668;49.648;8.570;2024-02-23T06:07:02;5.80;1.00
3312;DHT22;1668;49.648;8.570;2024-02-23T06:09:29;5.80;1.00
3312;DHT22;1668;49.648;8.570;2024-02-23T06:11:56;5.90;99.90
3312;DHT22;1668;49.648;8.570;2024-02-23T06:14:24;5.90;99.90
3312;DHT22;1668;49.648;8.570;2024-02-23T06:16:51;5.90;99.90
3312;DHT22;1668;49.648;8.570;2024-02-23T06:19:18;5.90;99.90
3312;DHT22;1668;49.648;8.570;2024-02-23T06:21:47;5.90;1.00
3312;DHT22;1668;49.648;8.570;2024-02-23T06:24:14;5.90;1.00
3312;DHT22;1668;49.648;8.570;2024-02-23T06:26:41;5.90;1.00
3312;DHT22;1668;49.648;8.570;2024-02-23T06:29:08;5.90;39.20
3312;DHT22;1668;49.648;8.570;2024-02-23T06:31:38;5.90;1.00
3312;DHT22;1668;49.648;8.570;2024-02-23T06:34:05;5.90;99.90
3312;DHT22;1668;49.648;8.570;2024-02-23T06:36:32;5.90;1.00
3312;DHT22;1668;49.648;8.570;2024-02-23T06:38:58;5.90;99.90
3312;DHT22;1668;49.648;8.570;2024-02-23T06:41:25;5.90;99.90
3312;DHT22;1668;49.648;8.570;2024-02-23T06:43:53;5.90;1.00
3312;DHT22;1668;49.648;8.570;2024-02-23T06:46:19;5.80;1.00
3312;DHT22;1668;49.648;8.570;2024-02-23T06:48:48;5.80;1.00
3312;DHT22;1668;49.648;8.570;2024-02-23T06:51:14;5.80;1.00
3312;DHT22;1668;49.648;8.570;2024-02-23T06:53:42;5.80;99.90
3312;DHT22;1668;49.648;8.570;2024-02-23T06:56:09;5.80;1.00
3312;DHT22;1668;49.648;8.570;2024-02-23T06:58:35;5.80;1.00
3312;DHT22;1668;49.648;8.570;2024-02-23T07:01:03;5.80;1.00
3312;DHT22;1668;49.648;8.570;2024-02-23T07:03:31;5.80;72.20
3312;DHT22;1668;49.648;8.570;2024-02-23T07:05:59;5.80;1.00
3312;DHT22;1668;49.648;8.570;2024-02-23T07:08:26;5.80;1.00
3312;DHT22;1668;49.648;8.570;2024-02-23T07:10:53;5.80;1.00
3312;DHT22;1668;49.648;8.570;2024-02-23T07:13:20;5.80;39.40
3312;DHT22;1668;49.648;8.570;2024-02-23T07:15:46;5.80;1.00
3312;DHT22;1668;49.648;8.570;2024-02-23T07:18:13;5.80;1.00
3312;DHT22;1668;49.648;8.570;2024-02-23T07:20:41;5.80;1.00
3312;DHT22;1668;49.648;8.570;2024-02-23T07:23:10;5.80;1.00
3312;DHT22;1668;49.648;8.570;2024-02-23T07:25:37;5.80;1.00
3312;DHT22;1668;49.648;8.570;2024-02-23T07:28:04;5.80;1.00
3312;DHT22;1668;49.648;8.570;2024-02-23T07:30:31;5.80;1.00
3312;DHT22;1668;49.648;8.570;2024-02-23T07:32:58;5.80;99.90
3312;DHT22;1668;49.648;8.570;2024-02-23T07:35:24;5.80;84.10
3312;DHT22;1668;49.648;8.570;2024-02-23T07:37:51;5.80;1.00
3312;DHT22;1668;49.648;8.570;2024-02-23T07:40:20;5.70;1.00
3312;DHT22;1668;49.648;8.570;2024-02-23T07:42:47;5.70;1.00
3312;DHT22;1668;49.648;8.570;2024-02-23T07:45:13;5.70;1.00
3312;DHT22;1668;49.648;8.570;2024-02-23T07:47:40;5.70;1.00
3312;DHT22;1668;49.648;8.570;2024-02-23T07:50:08;5.70;1.00
3312;DHT22;1668;49.648;8.570;2024-02-23T07:52:34;5.70;1.00
3312;DHT22;1668;49.648;8.570;2024-02-23T07:55:02;5.70;1.00
3312;DHT22;1668;49.648;8.570;2024-02-23T07:57:32;5.80;1.00
3312;DHT22;1668;49.648;8.570;2024-02-23T08:00:00;5.80;1.00
3312;DHT22;1668;49.648;8.570;2024-02-23T08:02:27;5.80;1.00
3312;DHT22;1668;49.648;8.570;2024-02-23T08:04:53;5.90;1.00
3312;DHT22;1668;49.648;8.570;2024-02-23T08:07:20;5.90;99.90
3312;DHT22;1668;49.648;8.570;2024-02-23T08:09:48;5.90;99.90
3312;DHT22;1668;49.648;8.570;2024-02-23T08:12:15;5.90;99.90
3312;DHT22;1668;49.648;8.570;2024-02-23T08:14:43;5.90;99.90
3312;DHT22;1668;49.648;8.570;2024-02-23T08:17:11;6.00;99.90
3312;DHT22;1668;49.648;8.570;2024-02-23T08:19:38;6.10;93.80
3312;DHT22;1668;49.648;8.570;2024-02-23T08:22:04;6.10;1.00
3312;DHT22;1668;49.648;8.570;2024-02-23T08:24:31;6.20;1.00
3312;DHT22;1668;49.648;8.570;2024-02-23T08:26:58;6.20;1.00
3312;DHT22;1668;49.648;8.570;2024-02-23T08:29:25;6.30;1.00
3312;DHT22;1668;49.648;8.570;2024-02-23T08:31:53;6.30;1.00
3312;DHT22;1668;49.648;8.570;2024-02-23T08:34:20;6.30;1.00
3312;DHT22;1668;49.648;8.570;2024-02-23T08:36:47;6.40;1.00
3312;DHT22;1668;49.648;8.570;2024-02-23T08:39:14;6.40;1.00
3312;DHT22;1668;49.648;8.570;2024-02-23T08:41:41;6.50;1.00
3312;DHT22;1668;49.648;8.570;2024-02-23T08:44:07;6.50;99.90
3312;DHT22;1668;49.648;8.570;2024-02-23T08:46:34;6.50;99.90
3312;DHT22;1668;49.648;8.570;2024-02-23T08:49:06;6.60;99.90
3312;DHT22;1668;49.648;8.570;2024-02-23T08:51:32;6.60;99.90
3312;DHT22;1668;49.648;8.570;2024-02-23T08:53:59;6.50;99.90
3312;DHT22;1668;49.648;8.570;2024-02-23T08:56:30;6.50;1.00
3312;DHT22;1668;49.648;8.570;2024-02-23T08:58:57;6.50;99.90
3312;DHT22;1668;49.648;8.570;2024-02-23T09:01:24;6.60;33.60
3312;DHT22;1668;49.648;8.570;2024-02-23T09:03:51;6.50;1.00
3312;DHT22;1668;49.648;8.570;2024-02-23T09:06:19;6.60;20.80
3312;DHT22;1668;49.648;8.570;2024-02-23T09:08:46;6.60;1.00
3312;DHT22;1668;49.648;8.570;2024-02-23T09:11:13;6.60;1.00
3312;DHT22;1668;49.648;8.570;2024-02-23T09:13:40;6.70;1.00
3312;DHT22;1668;49.648;8.570;2024-02-23T09:16:08;6.70;1.00
3312;DHT22;1668;49.648;8.570;2024-02-23T09:18:35;6.80;1.00
3312;DHT22;1668;49.648;8.570;2024-02-23T09:21:02;6.80;1.00
3312;DHT22;1668;49.648;8.570;2024-02-23T09:23:30;7.00;1.00
3312;DHT22;1668;49.648;8.570;2024-02-23T09:29:11;7.10;1.00
3312;DHT22;1668;49.648;8.570;2024-02-23T09:31:38;7.10;1.00
3312;DHT22;1668;49.648;8.570;2024-02-23T09:34:05;7.20;1.00
3312;DHT22;1668;49.648;8.570;2024-02-23T09:36:32;7.30;1.00
3312;DHT22;1668;49.648;8.570;2024-02-23T09:39:00;7.40;1.00
3312;DHT22;1668;49.648;8.570;2024-02-23T09:41:30;7.50;1.00
3312;DHT22;1668;49.648;8.570;2024-02-23T09:43:58;7.60;1.00
3312;DHT22;1668;49.648;8.570;2024-02-23T09:46:26;7.70;1.00
3312;DHT22;1668;49.648;8.570;2024-02-23T09:48:53;7.70;1.00
3312;DHT22;1668;49.648;8.570;2024-02-23T09:51:22;7.80;1.00
3312;DHT22;1668;49.648;8.570;2024-02-23T09:53:50;7.90;1.00
3312;DHT22;1668;49.648;8.570;2024-02-23T09:56:18;7.90;99.90
3312;DHT22;1668;49.648;8.570;2024-02-23T09:58:47;7.90;1.00
3312;DHT22;1668;49.648;8.570;2024-02-23T10:01:21;8.00;99.90
3312;DHT22;1668;49.648;8.570;2024-02-23T10:03:51;8.00;1.00
3312;DHT22;1668;49.648;8.570;2024-02-23T10:06:18;8.00;99.90
3312;DHT22;1668;49.648;8.570;2024-02-23T10:08:45;7.90;1.00
3312;DHT22;1668;49.648;8.570;2024-02-23T10:11:12;7.90;1.00
3312;DHT22;1668;49.648;8.570;2024-02-23T10:13:41;7.90;1.00
3312;DHT22;1668;49.648;8.570;2024-02-23T10:16:08;7.90;1.00
3312;DHT22;1668;49.648;8.570;2024-02-23T10:18:37;7.90;99.90
3312;DHT22;1668;49.648;8.570;2024-02-23T10:21:05;8.00;99.90
3312;DHT22;1668;49.648;8.570;2024-02-23T10:23:32;8.00;99.90
3312;DHT22;1668;49.648;8.570;2024-02-23T10:25:58;8.20;99.90
3312;DHT22;1668;49.648;8.570;2024-02-23T10:28:25;8.20;99.90
3312;DHT22;1668;49.648;8.570;2024-02-23T10:30:54;8.20;99.90
3312;DHT22;1668;49.648;8.570;2024-02-23T10:33:23;8.20;99.90
3312;DHT22;1668;49.648;8.570;2024-02-23T10:35:56;8.30;99.90
3312;DHT22;1668;49.648;8.570;2024-02-23T10:38:23;8.30;99.90
3312;DHT22;1668;49.648;8.570;2024-02-23T10:40:54;8.30;99.90
3312;DHT22;1668;49.648;8.570;2024-02-23T10:43:28;8.30;99.90
3312;DHT22;1668;49.648;8.570;2024-02-23T10:45:59;8.30;99.90
3312;DHT22;1668;49.648;8.570;2024-02-23T10:48:28;8.30;99.90
3312;DHT22;1668;49.648;8.570;2024-02-23T10:50:56;8.30;99.90
3312;DHT22;1668;49.648;8.570;2024-02-23T10:53:24;8.30;99.90
3312;DHT22;1668;49.648;8.570;2024-02-23T10:55:56;8.40;99.90
3312;DHT22;1668;49.648;8.570;2024-02-23T10:58:23;8.50;99.90
3312;DHT22;1668;49.648;8.570;2024-02-23T11:00:50;8.50;99.90
3312;DHT22;1668;49.648;8.570;2024-02-23T11:03:19;8.50;99.90
3312;DHT22;1668;49.648;8.570;2024-02-23T11:05:47;8.50;99.90
3312;DHT22;1668;49.648;8.570;2024-02-23T11:08:17;8.50;99.90
3312;DHT22;1668;49.648;8.570;2024-02-23T11:10:49;8.40;99.90
3312;DHT22;1668;49.648;8.570;2024-02-23T11:13:16;8.40;99.90
3312;DHT22;1668;49.648;8.570;2024-02-23T11:15:44;8.40;99.90
3312;DHT22;1668;49.648;8.570;2024-02-23T11:18:27;8.40;99.90
3312;DHT22;1668;49.648;8.570;2024-02-23T11:20:55;8.50;99.90
3312;DHT22;1668;49.648;8.570;2024-02-23T11:23:22;8.50;99.90
3312;DHT22;1668;49.648;8.570;2024-02-23T11:26:05;8.50;99.90
3312;DHT22;1668;49.648;8.570;2024-02-23T11:28:41;8.60;99.90
3312;DHT22;1668;49.648;8.570;2024-02-23T11:31:12;8.50;99.90
3312;DHT22;1668;49.648;8.570;2024-02-23T11:33:40;8.60;99.90
3312;DHT22;1668;49.648;8.570;2024-02-23T11:36:08;8.60;99.90
3312;DHT22;1668;49.648;8.570;2024-02-23T11:38:35;8.60;99.90
3312;DHT22;1668;49.648;8.570;2024-02-23T11:41:03;8.60;99.90
3312;DHT22;1668;49.648;8.570;2024-02-23T11:43:30;8.60;99.90
3312;DHT22;1668;49.648;8.570;2024-02-23T11:46:00;8.60;99.90
3312;DHT22;1668;49.648;8.570;2024-02-23T11:48:27;8.60;99.90
3312;DHT22;1668;49.648;8.570;2024-02-23T11:50:55;8.70;99.90
3312;DHT22;1668;49.648;8.570;2024-02-23T11:53:23;8.70;99.90
3312;DHT22;1668;49.648;8.570;2024-02-23T11:55:51;8.70;99.90
3312;DHT22;1668;49.648;8.570;2024-02-23T11:58:18;8.70;99.90
3312;DHT22;1668;49.648;8.570;2024-02-23T12:00:45;8.80;99.90
3312;DHT22;1668;49.648;8.570;2024-02-23T12:03:12;8.80;99.90
3312;DHT22;1668;49.648;8.570;2024-02-23T12:05:40;8.80;99.90
3312;DHT22;1668;49.648;8.570;2024-02-23T12:08:08;8.70;99.90
3312;DHT22;1668;49.648;8.570;2024-02-23T12:10:35;8.80;99.90
3312;DHT22;1668;49.648;8.570;2024-02-23T12:13:03;8.70;99.90
3312;DHT22;1668;49.648;8.570;2024-02-23T12:15:30;8.70;99.90
3312;DHT22;1668;49.648;8.570;2024-02-23T12:17:58;8.70;99.90
3312;DHT22;1668;49.648;8.570;2024-02-23T12:20:25;8.70;99.90
3312;DHT22;1668;49.648;8.570;2024-02-23T12:22:55;8.70;99.90
3312;DHT22;1668;49.648;8.570;2024-02-23T12:25:23;8.70;99.90
3312;DHT22;1668;49.648;8.570;2024-02-23T12:27:54;8.70;99.90
3312;DHT22;1668;49.648;8.570;2024-02-23T12:30:22;8.70;1.00
3312;DHT22;1668;49.648;8.570;2024-02-23T12:32:49;8.70;99.90
3312;DHT22;1668;49.648;8.570;2024-02-23T12:35:16;8.70;99.90
3312;DHT22;1668;49.648;8.570;2024-02-23T12:37:43;8.70;99.90
3312;DHT22;1668;49.648;8.570;2024-02-23T12:40:11;8.70;99.90
3312;DHT22;1668;49.648;8.570;2024-02-23T12:42:39;8.70;1.00
3312;DHT22;1668;49.648;8.570;2024-02-23T12:45:06;8.70;99.90
3312;DHT22;1668;49.648;8.570;2024-02-23T12:47:33;8.80;99.90
3312;DHT22;1668;49.648;8.570;2024-02-23T12:50:00;8.80;99.90
3312;DHT22;1668;49.648;8.570;2024-02-23T12:52:27;8.90;99.90
3312;DHT22;1668;49.648;8.570;2024-02-23T12:54:54;9.00;99.90
3312;DHT22;1668;49.648;8.570;2024-02-23T12:57:21;9.00;99.90
3312;DHT22;1668;49.648;8.570;2024-02-23T12:59:49;9.10;99.90
3312;DHT22;1668;49.648;8.570;2024-02-23T13:02:16;9.30;99.90
3312;DHT22;1668;49.648;8.570;2024-02-23T13:04:42;9.50;99.90
3312;DHT22;1668;49.648;8.570;2024-02-23T13:07:14;9.80;99.90
3312;DHT22;1668;49.648;8.570;2024-02-23T13:09:41;10.00;99.90
3312;DHT22;1668;49.648;8.570;2024-02-23T13:12:08;10.10;99.90
3312;DHT22;1668;49.648;8.570;2024-02-23T13:14:35;10.20;99.90
3312;DHT22;1668;49.648;8.570;2024-02-23T13:17:03;10.20;99.90
3312;DHT22;1668;49.648;8.570;2024-02-23T13:19:30;10.10;99.90
3312;DHT22;1668;49.648;8.570;2024-02-23T13:21:57;10.00;99.90
3312;DHT22;1668;49.648;8.570;2024-02-23T13:24:25;9.90;99.90
3312;DHT22;1668;49.648;8.570;2024-02-23T13:26:52;9.80;99.90
3312;DHT22;1668;49.648;8.570;2024-02-23T13:29:19;9.70;99.90
3312;DHT22;1668;49.648;8.570;2024-02-23T13:31:46;9.70;99.90
3312;DHT22;1668;49.648;8.570;2024-02-23T13:34:14;9.70;99.90
3312;DHT22;1668;49.648;8.570;2024-02-23T13:36:43;9.70;99.90
3312;DHT22;1668;49.648;8.570;2024-02-23T13:39:10;9.70;99.90
3312;DHT22;1668;49.648;8.570;2024-02-23T13:41:37;9.60;99.90
3312;DHT22;1668;49.648;8.570;2024-02-23T13:44:04;9.60;99.90
3312;DHT22;1668;49.648;8.570;2024-02-23T13:46:31;9.60;99.90
3312;DHT22;1668;49.648;8.570;2024-02-23T13:49:05;9.60;99.90
3312;DHT22;1668;49.648;8.570;2024-02-23T13:51:34;9.50;99.90
3312;DHT22;1668;49.648;8.570;2024-02-23T13:54:01;9.40;99.90
3312;DHT22;1668;49.648;8.570;2024-02-23T13:56:28;9.40;99.90
3312;DHT22;1668;49.648;8.570;2024-02-23T13:58:55;9.40;99.90
3312;DHT22;1668;49.648;8.570;2024-02-23T14:01:22;9.40;99.90
3312;DHT22;1668;49.648;8.570;2024-02-23T14:03:49;9.40;1.00
3312;DHT22;1668;49.648;8.570;2024-02-23T14:06:16;9.30;1.00
3312;DHT22;1668;49.648;8.570;2024-02-23T14:08:44;9.30;1.00
3312;DHT22;1668;49.648;8.570;2024-02-23T14:11:13;9.20;1.00
3312;DHT22;1668;49.648;8.570;2024-02-23T14:13:39;9.20;1.00
3312;DHT22;1668;49.648;8.570;2024-02-23T14:16:06;9.20;1.00
3312;DHT22;1668;49.648;8.570;2024-02-23T14:18:33;9.10;1.00
3312;DHT22;1668;49.648;8.570;2024-02-23T14:21:04;9.10;1.00
3312;DHT22;1668;49.648;8.570;2024-02-23T14:23:31;9.10;1.00
3312;DHT22;1668;49.648;8.570;2024-02-23T14:25:59;9.00;1.00
3312;DHT22;1668;49.648;8.570;2024-02-23T14:28:26;9.00;99.90
3312;DHT22;1668;49.648;8.570;2024-02-23T14:30:52;8.90;1.00
3312;DHT22;1668;49.648;8.570;2024-02-23T14:33:20;9.00;1.00
3312;DHT22;1668;49.648;8.570;2024-02-23T14:35:47;9.00;1.00
3312;DHT22;1668;49.648;8.570;2024-02-23T14:38:14;9.00;1.00
3312;DHT22;1668;49.648;8.570;2024-02-23T14:40:41;9.00;99.90
3312;DHT22;1668;49.648;8.570;2024-02-23T14:43:13;9.10;1.00
3312;DHT22;1668;49.648;8.570;2024-02-23T14:45:40;9.20;1.00
3312;DHT22;1668;49.648;8.570;2024-02-23T14:48:07;9.30;99.90
3312;DHT22;1668;49.648;8.570;2024-02-23T14:50:34;9.40;99.90
3312;DHT22;1668;49.648;8.570;2024-02-23T14:53:01;9.40;99.90
3312;DHT22;1668;49.648;8.570;2024-02-23T14:55:28;9.40;99.90
3312;DHT22;1668;49.648;8.570;2024-02-23T14:57:55;9.30;1.00
3312;DHT22;1668;49.648;8.570;2024-02-23T15:00:25;9.30;1.00
3312;DHT22;1668;49.648;8.570;2024-02-23T15:02:52;9.40;1.00
3312;DHT22;1668;49.648;8.570;2024-02-23T15:05:19;9.40;1.00
3312;DHT22;1668;49.648;8.570;2024-02-23T15:07:46;9.30;1.00
3312;DHT22;1668;49.648;8.570;2024-02-23T15:10:13;9.20;1.00
3312;DHT22;1668;49.648;8.570;2024-02-23T15:12:40;9.20;99.90
3312;DHT22;1668;49.648;8.570;2024-02-23T15:15:07;9.10;1.00
3312;DHT22;1668;49.648;8.570;2024-02-23T15:17:36;9.10;1.00
3312;DHT22;1668;49.648;8.570;2024-02-23T15:20:04;9.10;1.00
3312;DHT22;1668;49.648;8.570;2024-02-23T15:22:31;9.10;1.00
3312;DHT22;1668;49.648;8.570;2024-02-23T15:24:58;9.20;1.00
3312;DHT22;1668;49.648;8.570;2024-02-23T15:27:25;9.20;1.00
3312;DHT22;1668;49.648;8.570;2024-02-23T15:29:52;9.20;99.90
3312;DHT22;1668;49.648;8.570;2024-02-23T15:32:18;9.10;99.90
3312;DHT22;1668;49.648;8.570;2024-02-23T15:34:47;8.90;99.90
3312;DHT22;1668;49.648;8.570;2024-02-23T15:37:13;8.90;1.00
3312;DHT22;1668;49.648;8.570;2024-02-23T15:39:40;8.90;1.00
3312;DHT22;1668;49.648;8.570;2024-02-23T15:42:07;8.90;1.00
3312;DHT22;1668;49.648;8.570;2024-02-23T15:44:34;8.90;99.90
3312;DHT22;1668;49.648;8.570;2024-02-23T15:47:01;8.90;99.90
3312;DHT22;1668;49.648;8.570;2024-02-23T15:49:28;8.90;1.00
3312;DHT22;1668;49.648;8.570;2024-02-23T15:51:56;8.80;1.00
3312;DHT22;1668;49.648;8.570;2024-02-23T15:54:23;8.80;1.00
3312;DHT22;1668;49.648;8.570;2024-02-23T15:56:49;8.80;99.90
3312;DHT22;1668;49.648;8.570;2024-02-23T15:59:16;8.90;99.90
3312;DHT22;1668;49.648;8.570;2024-02-23T16:01:43;8.80;99.90
3312;DHT22;1668;49.648;8.570;2024-02-23T16:04:10;8.80;99.90
3312;DHT22;1668;49.648;8.570;2024-02-23T16:06:37;8.80;99.90
3312;DHT22;1668;49.648;8.570;2024-02-23T16:09:05;8.80;1.00
3312;DHT22;1668;49.648;8.570;2024-02-23T16:11:33;8.80;1.00
3312;DHT22;1668;49.648;8.570;2024-02-23T16:13:59;8.80;1.00
3312;DHT22;1668;49.648;8.570;2024-02-23T16:16:26;8.70;99.90
3312;DHT22;1668;49.648;8.570;2024-02-23T16:18:53;8.70;1.00
3312;DHT22;1668;49.648;8.570;2024-02-23T16:21:20;8.70;1.00
3312;DHT22;1668;49.648;8.570;2024-02-23T16:23:46;8.70;1.00
3312;DHT22;1668;49.648;8.570;2024-02-23T16:26:15;8.70;1.00
3312;DHT22;1668;49.648;8.570;2024-02-23T16:28:41;8.70;1.00